Time;durP1;ratioP1;P1;durP2;ratioP2;P2;SDS_P1;SDS_P2;PMS_P1;PMS_P2;Temp;Humidity;BMP_temperature;BMP_pressure;BME280_temperature;BME280_humidity;BME280_pressure;Samples;Min_cycle;Max_cycle;Signal;HPM_P1;HPM_P2
2022/11/23 00:01:38;;;;;;;;;;;;;;;18.66;72.21;99736.88;7405309;19;1769;-66
2022/11/23 00:04:07;;;;;;;;;;;;;;;18.67;71.93;99728.69;7404603;19;1678;-66
2022/11/23 00:06:36;;;;;;;;;;;;;;;18.64;72.17;99737.06;7406849;19;1460;-66
2022/11/23 00:09:04;;;;;;;;;;;;;;;18.65;72.36;99725.31;7405254;19;1647;-67
2022/11/23 00:11:35;;;;;;;;;;;;;;;18.65;72.03;99717.28;7406051;19;1542;-66
2022/11/23 00:14:03;;;;;;;;;;;;;;;18.65;71.78;99724.50;7405132;19;1543;-66
2022/11/23 00:16:32;;;;;;;;;;;;;;;18.61;72.37;99740.03;7406626;19;1674;-66
2022/11/23 00:19:03;;;;;;;;;;;;;;;18.61;71.93;99718.59;7402904;19;1846;-67
2022/11/23 00:21:33;;;;;;;;;;;;;;;18.60;72.27;99711.59;7404657;19;1670;-67
2022/11/23 00:24:01;;;;;;;;;;;;;;;18.61;72.37;99710.56;7406121;19;1311;-67
2022/11/23 00:26:29;;;;;;;;;;;;;;;18.62;72.25;99709.59;7406625;19;1627;-67
2022/11/23 00:28:57;;;;;;;;;;;;;;;18.59;71.44;99695.66;7406427;19;1457;-67
2022/11/23 00:31:26;;;;;;;;;;;;;;;18.55;71.90;99707.69;7405458;19;1586;-67
2022/11/23 00:33:55;;;;;;;;;;;;;;;18.56;72.10;99710.22;7405818;19;1556;-67
2022/11/23 00:36:27;;;;;;;;;;;;;;;18.56;72.28;99710.22;7405241;19;1670;-66
2022/11/23 00:38:56;;;;;;;;;;;;;;;18.55;71.30;99705.84;7402746;19;1856;-67
2022/11/23 00:41:26;;;;;;;;;;;;;;;18.55;72.02;99705.84;7405304;19;1642;-66
2022/11/23 00:43:54;;;;;;;;;;;;;;;18.55;71.11;99700.50;7406163;19;1461;-66
2022/11/23 00:46:24;;;;;;;;;;;;;;;18.54;71.57;99706.84;7404329;19;1541;-66
2022/11/23 00:48:53;;;;;;;;;;;;;;;18.56;72.64;99706.69;7404516;19;1820;-66
2022/11/23 00:51:22;;;;;;;;;;;;;;;18.54;72.14;99701.47;7404935;19;1721;-67
2022/11/23 00:53:54;;;;;;;;;;;;;;;18.51;72.25;99720.56;7405428;19;1469;-67
2022/11/23 00:56:22;;;;;;;;;;;;;;;18.50;72.34;99713.50;7404506;19;1635;-67
2022/11/23 00:58:51;;;;;;;;;;;;;;;18.51;72.31;99720.56;7404159;19;1827;-66
2022/11/23 01:01:20;;;;;;;;;;;;;;;18.49;72.72;99711.84;7398542;19;1709;-67
2022/11/23 01:03:49;;;;;;;;;;;;;;;18.48;72.80;99707.47;7403136;19;1453;-66
2022/11/23 01:06:18;;;;;;;;;;;;;;;18.48;73.00;99696.75;7404590;19;1516;-67
2022/11/23 01:08:49;;;;;;;;;;;;;;;18.46;73.10;99693.41;7403433;19;1548;-67
2022/11/23 01:11:21;;;;;;;;;;;;;;;18.48;73.38;99686.06;7404816;19;1437;-67
2022/11/23 01:13:50;;;;;;;;;;;;;;;18.45;73.16;99697.94;7403681;19;1612;-67
2022/11/23 01:16:19;;;;;;;;;;;;;;;18.44;73.46;99674.00;7403104;19;1526;-67
2022/11/23 01:18:48;;;;;;;;;;;;;;;18.43;73.29;99664.28;7402208;19;1849;-67
2022/11/23 01:21:16;;;;;;;;;;;;;;;18.44;73.28;99647.22;7403641;19;1671;-66
2022/11/23 01:23:45;;;;;;;;;;;;;;;18.42;73.22;99650.09;7403369;19;1584;-66
2022/11/23 01:26:13;;;;;;;;;;;;;;;18.41;72.56;99643.03;7403938;19;1515;-67
2022/11/23 01:28:44;;;;;;;;;;;;;;;18.40;72.54;99630.66;7407148;19;1662;-67
2022/11/23 01:31:14;;;;;;;;;;;;;;;18.40;73.25;99628.00;7410572;19;1639;-67
2022/11/23 01:33:42;;;;;;;;;;;;;;;18.43;73.04;99633.00;7410975;19;1433;-66
2022/11/23 01:36:11;;;;;;;;;;;;;;;18.41;73.33;99632.31;7410755;19;1757;-67
2022/11/23 01:38:39;;;;;;;;;;;;;;;18.40;72.82;99640.50;7409216;19;1853;-67
2022/11/23 01:41:08;;;;;;;;;;;;;;;18.41;73.28;99637.69;7411283;19;1563;-66
2022/11/23 01:43:36;;;;;;;;;;;;;;;18.42;73.25;99627.81;7411423;19;1722;-66
2022/11/23 01:46:07;;;;;;;;;;;;;;;18.41;73.39;99639.53;7410291;19;1682;-66
2022/11/23 01:48:39;;;;;;;;;;;;;;;18.40;73.31;99624.44;7410145;19;1778;-66
2022/11/23 01:51:08;;;;;;;;;;;;;;;18.43;73.27;99640.19;7410422;19;1559;-64
2022/11/23 01:53:38;;;;;;;;;;;;;;;18.39;72.97;99639.69;7411841;19;1556;-58
2022/11/23 01:56:08;;;;;;;;;;;;;;;18.40;73.97;99643.19;7411190;19;1536;-66
2022/11/23 01:58:38;;;;;;;;;;;;;;;18.36;73.29;99621.25;7408652;19;1842;-66
2022/11/23 02:01:09;;;;;;;;;;;;;;;18.39;73.77;99614.75;7408912;19;1671;-59
2022/11/23 02:03:39;;;;;;;;;;;;;;;19.22;71.09;99620.25;7409063;19;1535;-67
2022/11/23 02:06:11;;;;;;;;;;;;;;;19.92;68.94;99610.94;7409025;19;1663;-66
2022/11/23 02:08:40;;;;;;;;;;;;;;;20.11;68.37;99598.97;7410040;19;1488;-66
2022/11/23 02:11:09;;;;;;;;;;;;;;;20.30;68.10;99604.97;7410140;19;1473;-59
2022/11/23 02:13:37;;;;;;;;;;;;;;;20.55;67.61;99600.34;7409900;19;1484;-59
2022/11/23 02:16:06;;;;;;;;;;;;;;;20.84;66.74;99583.63;7406843;19;1679;-59
2022/11/23 02:18:37;;;;;;;;;;;;;;;20.63;67.07;99598.50;7407149;19;1875;-59
2022/11/23 02:21:06;;;;;;;;;;;;;;;20.56;67.67;99584.06;7409802;19;1460;-59
2022/11/23 02:23:36;;;;;;;;;;;;;;;20.58;67.67;99563.25;7410618;19;1465;-59
2022/11/23 02:26:09;;;;;;;;;;;;;;;20.52;67.70;99561.25;7410491;19;1465;-59
2022/11/23 02:28:39;;;;;;;;;;;;;;;20.68;67.43;99546.94;7409285;19;1721;-59
2022/11/23 02:31:07;;;;;;;;;;;;;;;20.60;67.64;99550.50;7407611;19;1754;-59
2022/11/23 02:33:38;;;;;;;;;;;;;;;20.69;67.03;99554.00;7407433;19;1484;-59
2022/11/23 02:36:21;;;;;;;;;;;;;;;20.64;67.24;99557.19;7407360;19;1631;-59
2022/11/23 02:38:50;;;;;;;;;;;;;;;20.66;67.17;99539.06;7406599;19;1865;-59
2022/11/23 02:41:21;;;;;;;;;;;;;;;20.66;67.61;99539.06;7406519;19;1445;-58
2022/11/23 02:43:50;;;;;;;;;;;;;;;20.65;67.70;99542.78;7409950;19;1465;-59
2022/11/23 02:46:18;;;;;;;;;;;;;;;20.84;67.14;99540.63;7408439;19;1643;-59
2022/11/23 02:48:47;;;;;;;;;;;;;;;20.82;66.83;99545.34;7408128;19;1526;-59
2022/11/23 02:51:15;;;;;;;;;;;;;;;20.88;66.88;99541.94;7408188;19;1556;-59
2022/11/23 02:53:44;;;;;;;;;;;;;;;20.81;66.80;99544.53;7408553;19;1540;-59
2022/11/23 02:56:12;;;;;;;;;;;;;;;20.89;66.97;99554.38;7409165;19;1436;-59
2022/11/23 02:58:43;;;;;;;;;;;;;;;20.81;66.84;99554.41;7406541;19;1858;-59
2022/11/23 03:01:11;;;;;;;;;;;;;;;20.95;66.61;99558.19;7402541;19;1729;-59
2022/11/23 03:03:40;;;;;;;;;;;;;;;20.83;67.23;99573.88;7407282;19;1512;-59
2022/11/23 03:06:08;;;;;;;;;;;;;;;20.97;66.94;99556.16;7407184;19;1662;-59
2022/11/23 03:08:36;;;;;;;;;;;;;;;21.00;66.57;99567.41;7409134;19;1559;-59
2022/11/23 03:11:05;;;;;;;;;;;;;;;21.11;66.26;99563.47;7408171;19;1556;-59
2022/11/23 03:13:33;;;;;;;;;;;;;;;21.00;66.31;99562.03;7408066;19;1677;-59
2022/11/23 03:16:04;;;;;;;;;;;;;;;21.02;66.68;99541.19;7406631;19;1874;-59
2022/11/23 03:18:32;;;;;;;;;;;;;;;21.00;66.56;99539.69;7406165;19;1867;-59
2022/11/23 03:21:03;;;;;;;;;;;;;;;21.14;66.24;99540.78;7407476;19;1556;-59
2022/11/23 03:23:31;;;;;;;;;;;;;;;21.03;66.60;99544.72;7408572;19;1468;-59
2022/11/23 03:26:00;;;;;;;;;;;;;;;21.10;66.61;99523.34;7407237;19;1660;-59
2022/11/23 03:28:29;;;;;;;;;;;;;;;21.27;66.00;99535.63;7407711;19;1705;-59
2022/11/23 03:30:57;;;;;;;;;;;;;;;21.31;65.87;99531.56;7406153;19;1844;-59
2022/11/23 03:33:28;;;;;;;;;;;;;;;21.48;65.43;99524.22;7406434;19;1552;-58
2022/11/23 03:35:56;;;;;;;;;;;;;;;21.53;64.96;99561.34;7407556;19;1584;-58
2022/11/23 03:38:25;;;;;;;;;;;;;;;20.96;66.74;99555.34;7406659;19;1867;-58
2022/11/23 03:40:53;;;;;;;;;;;;;;;20.97;66.55;99535.53;7406630;19;1794;-58
2022/11/23 03:43:21;;;;;;;;;;;;;;;21.13;66.65;99533.72;7406381;19;1638;-59
2022/11/23 03:45:50;;;;;;;;;;;;;;;21.11;66.59;99549.19;7406416;19;1356;-59
2022/11/23 03:48:18;;;;;;;;;;;;;;;21.17;66.37;99532.34;7406308;19;1591;-59
2022/11/23 03:50:49;;;;;;;;;;;;;;;21.16;66.44;99522.63;7405956;19;1567;-59
2022/11/23 03:53:18;;;;;;;;;;;;;;;21.16;66.22;99528.81;7406624;19;1651;-59
2022/11/23 03:55:47;;;;;;;;;;;;;;;21.17;66.36;99508.13;7406009;19;1785;-59
2022/11/23 03:58:15;;;;;;;;;;;;;;;21.50;65.31;99534.81;7404351;19;1860;-56
2022/11/23 04:00:43;;;;;;;;;;;;;;;21.61;64.67;99510.16;7406050;19;1465;-56
2022/11/23 04:03:13;;;;;;;;;;;;;;;21.51;65.29;99514.97;7404081;19;1721;-56
2022/11/23 04:05:41;;;;;;;;;;;;;;;21.55;65.02;99518.97;7406562;19;1671;-56
2022/11/23 04:08:12;;;;;;;;;;;;;;;21.11;66.34;99520.47;7405179;19;1450;-58
2022/11/23 04:10:40;;;;;;;;;;;;;;;21.44;65.54;99507.59;7405760;19;1644;-59
2022/11/23 04:13:08;;;;;;;;;;;;;;;21.33;65.60;99510.72;7405318;19;1476;-59
2022/11/23 04:15:37;;;;;;;;;;;;;;;21.06;66.72;99507.56;7405184;19;1549;-59
2022/11/23 04:18:05;;;;;;;;;;;;;;;20.94;67.32;99509.00;7404311;19;1865;-59
2022/11/23 04:20:33;;;;;;;;;;;;;;;21.09;66.93;99506.38;7405338;19;1544;-59
2022/11/23 04:23:02;;;;;;;;;;;;;;;21.10;66.72;99491.91;7404941;19;1682;-59
2022/11/23 04:25:33;;;;;;;;;;;;;;;21.22;66.36;99495.84;7405945;19;1615;-59
2022/11/23 04:28:01;;;;;;;;;;;;;;;21.44;65.74;99483.41;7405330;19;1444;-59
2022/11/23 04:30:29;;;;;;;;;;;;;;;21.33;65.89;99493.72;7404169;19;1445;-59
2022/11/23 04:32:58;;;;;;;;;;;;;;;21.48;65.48;99493.81;7404212;19;1733;-59
2022/11/23 04:35:26;;;;;;;;;;;;;;;21.60;64.86;99503.09;7405851;19;1596;-59
2022/11/23 04:37:54;;;;;;;;;;;;;;;21.36;65.90;99496.88;7404176;19;1556;-59
2022/11/23 04:40:22;;;;;;;;;;;;;;;21.25;66.18;99503.56;7403087;19;1843;-59
2022/11/23 04:42:54;;;;;;;;;;;;;;;21.16;66.51;99498.41;7404057;19;1465;-59
2022/11/23 04:45:22;;;;;;;;;;;;;;;21.35;66.33;99494.41;7404694;19;1643;-59
2022/11/23 04:47:51;;;;;;;;;;;;;;;21.47;65.81;99503.72;7402958;19;1792;-59
2022/11/23 04:50:19;;;;;;;;;;;;;;;21.59;65.44;99501.44;7404978;19;1634;-59
2022/11/23 04:52:47;;;;;;;;;;;;;;;21.53;65.64;99512.94;7403698;19;1631;-59
2022/11/23 04:55:16;;;;;;;;;;;;;;;21.57;65.31;99503.47;7404124;19;1735;-59
2022/11/23 04:57:44;;;;;;;;;;;;;;;21.63;64.83;99508.94;7402557;19;1544;-59
2022/11/23 05:00:16;;;;;;;;;;;;;;;21.32;66.01;99505.50;7403478;19;1853;-59
2022/11/23 05:02:44;;;;;;;;;;;;;;;21.17;66.55;99509.00;7399242;19;1807;-59
2022/11/23 05:05:12;;;;;;;;;;;;;;;21.23;66.26;99510.13;7403532;19;1714;-59
2022/11/23 05:07:41;;;;;;;;;;;;;;;21.26;66.15;99507.06;7404049;19;1418;-59
2022/11/23 05:10:10;;;;;;;;;;;;;;;20.85;67.37;99504.72;7400066;19;1563;-58
2022/11/23 05:12:38;;;;;;;;;;;;;;;20.50;68.87;99509.56;7396214;19;1337;-58
2022/11/23 05:15:07;;;;;;;;;;;;;;;20.20;69.54;99513.91;7399130;19;1366;-58
2022/11/23 05:17:38;;;;;;;;;;;;;;;20.05;70.03;99511.09;7400702;19;1369;-58
2022/11/23 05:20:07;;;;;;;;;;;;;;;19.95;70.46;99518.50;7402623;19;1861;-59
2022/11/23 05:22:35;;;;;;;;;;;;;;;19.89;71.06;99503.94;7401729;19;1647;-58
2022/11/23 05:25:03;;;;;;;;;;;;;;;19.81;71.36;99506.63;7402099;19;1548;-59
2022/11/23 05:27:32;;;;;;;;;;;;;;;19.76;71.35;99503.66;7402179;19;1544;-58
2022/11/23 05:30:00;;;;;;;;;;;;;;;19.74;71.49;99511.03;7402204;19;1591;-58
2022/11/23 05:32:28;;;;;;;;;;;;;;;19.69;71.09;99503.44;7401537;19;1634;-58
2022/11/23 05:34:59;;;;;;;;;;;;;;;19.67;71.40;99489.38;7403532;19;1701;-58
2022/11/23 05:37:27;;;;;;;;;;;;;;;19.67;71.33;99500.94;7402364;19;1627;-58
2022/11/23 05:39:56;;;;;;;;;;;;;;;19.66;71.36;99498.44;7398758;19;1853;-58
2022/11/23 05:42:24;;;;;;;;;;;;;;;19.72;71.28;99505.00;7400161;19;1631;-59
2022/11/23 05:44:52;;;;;;;;;;;;;;;19.72;70.96;99502.31;7397316;19;1556;-58
2022/11/23 05:47:21;;;;;;;;;;;;;;;19.69;71.27;99506.13;7400897;19;1327;-58
2022/11/23 05:49:49;;;;;;;;;;;;;;;19.65;71.60;99486.84;7396424;19;1179;-59
2022/11/23 05:52:20;;;;;;;;;;;;;;;19.67;71.19;99514.34;7397254;19;1612;-58
2022/11/23 05:54:49;;;;;;;;;;;;;;;19.64;71.74;99519.22;7401644;19;1543;-59
2022/11/23 05:57:17;;;;;;;;;;;;;;;19.61;71.88;99506.16;7400680;19;1352;-58
2022/11/23 05:59:46;;;;;;;;;;;;;;;19.56;72.55;99517.41;7400013;19;1861;-57
2022/11/23 06:02:14;;;;;;;;;;;;;;;19.67;72.09;99508.16;7400072;19;1409;-58
2022/11/23 06:04:42;;;;;;;;;;;;;;;19.65;72.03;99502.94;7400378;19;1009;-57
2022/11/23 06:07:11;;;;;;;;;;;;;;;19.63;71.70;99510.31;7397628;19;1130;-58
2022/11/23 06:09:42;;;;;;;;;;;;;;;19.66;71.93;99501.13;7400972;19;1224;-58
2022/11/23 06:12:10;;;;;;;;;;;;;;;19.54;72.27;99518.59;7400243;19;1168;-58
2022/11/23 06:14:38;;;;;;;;;;;;;;;19.54;72.51;99505.16;7405053;19;1060;-58
2022/11/23 06:17:07;;;;;;;;;;;;;;;19.55;72.28;99506.84;7408127;19;1753;-58
2022/11/23 06:19:36;;;;;;;;;;;;;;;19.61;72.17;99511.50;7407156;19;1853;-58
2022/11/23 06:22:04;;;;;;;;;;;;;;;19.56;72.43;99524.59;7408560;19;1556;-58
2022/11/23 06:24:33;;;;;;;;;;;;;;;19.62;72.67;99542.69;7407396;19;1552;-59
2022/11/23 06:27:04;;;;;;;;;;;;;;;19.69;72.33;99535.63;7408310;19;1452;-58
2022/11/23 06:29:32;;;;;;;;;;;;;;;19.67;72.37;99532.28;7406959;19;1298;-58
2022/11/23 06:32:00;;;;;;;;;;;;;;;19.61;72.16;99530.28;7408344;19;1307;-58
2022/11/23 06:34:29;;;;;;;;;;;;;;;19.56;72.71;99535.34;7407091;19;1689;-59
2022/11/23 06:36:57;;;;;;;;;;;;;;;19.48;72.97;99534.31;7406779;19;1429;-58
2022/11/23 06:39:25;;;;;;;;;;;;;;;19.60;72.84;99537.50;7404779;19;1852;-59
2022/11/23 06:41:54;;;;;;;;;;;;;;;19.63;72.81;99536.31;7407133;19;1452;-61
2022/11/23 06:44:25;;;;;;;;;;;;;;;19.61;73.02;99546.38;7405583;19;1697;-61
2022/11/23 06:46:53;;;;;;;;;;;;;;;19.67;72.97;99522.38;7406599;19;1431;-55
2022/11/23 06:49:22;;;;;;;;;;;;;;;19.58;72.79;99522.59;7406424;19;1705;-58
2022/11/23 06:51:50;;;;;;;;;;;;;;;19.59;72.59;99530.44;7405863;19;1512;-57
2022/11/23 06:54:18;;;;;;;;;;;;;;;19.66;72.57;99536.81;7404958;19;1398;-58
2022/11/23 06:56:47;;;;;;;;;;;;;;;19.69;72.70;99541.00;7397331;19;1582;-58
2022/11/23 06:59:15;;;;;;;;;;;;;;;19.76;72.13;99538.53;7404157;19;1855;-58
2022/11/23 07:01:46;;;;;;;;;;;;;;;19.71;72.16;99528.28;7405713;19;1713;-57
2022/11/23 07:04:14;;;;;;;;;;;;;;;19.61;72.62;99523.06;7405871;19;1725;-58
2022/11/23 07:06:43;;;;;;;;;;;;;;;19.75;72.50;99510.84;7403994;19;1669;-56
2022/11/23 07:09:11;;;;;;;;;;;;;;;19.72;72.87;99505.84;7396400;19;1674;-59
2022/11/23 07:11:40;;;;;;;;;;;;;;;19.77;72.84;99508.81;7407300;19;1322;-58
2022/11/23 07:14:08;;;;;;;;;;;;;;;19.78;73.06;99483.69;7405843;19;1289;-58
2022/11/23 07:16:36;;;;;;;;;;;;;;;19.68;73.14;99507.16;7407042;19;1480;-58
2022/11/23 07:19:07;;;;;;;;;;;;;;;19.60;73.54;99491.09;7406643;19;1869;-58
2022/11/23 07:21:36;;;;;;;;;;;;;;;19.64;73.40;99500.47;7405832;19;1821;-60
2022/11/23 07:24:04;;;;;;;;;;;;;;;19.61;72.30;99495.41;7405433;19;1733;-58
2022/11/23 07:26:32;;;;;;;;;;;;;;;19.57;72.52;99488.72;7404188;19;1349;-59
2022/11/23 07:29:00;;;;;;;;;;;;;;;19.51;72.62;99497.44;7405109;19;1286;-60
2022/11/23 07:31:29;;;;;;;;;;;;;;;19.47;73.25;99502.31;7405712;19;1454;-59
2022/11/23 07:33:57;;;;;;;;;;;;;;;19.56;73.05;99521.94;7403014;19;1651;-58
2022/11/23 07:36:28;;;;;;;;;;;;;;;19.65;72.07;99510.16;7403391;19;1477;-58
2022/11/23 07:38:56;;;;;;;;;;;;;;;19.69;71.94;99519.53;7392342;19;1211;-58
2022/11/23 07:41:26;;;;;;;;;;;;;;;19.62;71.77;99534.66;7392003;19;1846;-57
2022/11/23 07:43:57;;;;;;;;;;;;;;;19.52;72.53;99523.25;7404139;19;1306;-58
2022/11/23 07:46:25;;;;;;;;;;;;;;;19.45;72.74;99523.09;7406349;19;1595;-59
2022/11/23 07:48:58;;;;;;;;;;;;;;;19.46;72.96;99517.56;7405177;19;1722;-58
2022/11/23 07:51:29;;;;;;;;;;;;;;;19.42;72.54;99518.91;7404695;19;1484;-58
2022/11/23 07:53:57;;;;;;;;;;;;;;;19.35;71.97;99519.75;7405185;19;1574;-58
2022/11/23 07:56:25;;;;;;;;;;;;;;;19.33;72.37;99519.09;7405695;19;1608;-58
2022/11/23 07:58:53;;;;;;;;;;;;;;;19.34;72.87;99532.31;7404296;19;1464;-59
2022/11/23 08:01:22;;;;;;;;;;;;;;;19.41;73.12;99544.03;7404079;19;1854;-63
2022/11/23 08:03:50;;;;;;;;;;;;;;;19.38;72.97;99565.84;7403618;19;1469;-61
2022/11/23 08:06:18;;;;;;;;;;;;;;;19.35;73.35;99565.31;7401767;19;1698;-59
2022/11/23 08:08:49;;;;;;;;;;;;;;;19.37;73.69;99563.31;7406447;19;1468;-59
2022/11/23 08:11:19;;;;;;;;;;;;;;;19.33;72.79;99578.88;7403678;19;1599;-59
2022/11/23 08:13:47;;;;;;;;;;;;;;;19.18;72.97;99580.53;7404847;19;1477;-58
2022/11/23 08:16:16;;;;;;;;;;;;;;;19.04;71.79;99574.84;7401178;19;1765;-59
2022/11/23 08:18:44;;;;;;;;;;;;;;;18.96;72.97;99577.50;7404531;19;1638;-58
2022/11/23 08:21:12;;;;;;;;;;;;;;;18.95;71.76;99565.09;7401396;19;1842;-59
2022/11/23 08:23:41;;;;;;;;;;;;;;;19.03;73.19;99567.78;7402381;19;1544;-59
2022/11/23 08:26:12;;;;;;;;;;;;;;;19.54;71.61;99561.47;7403648;19;1060;-59
2022/11/23 08:28:40;;;;;;;;;;;;;;;20.37;68.71;99565.69;7404084;19;1690;-59
2022/11/23 08:31:10;;;;;;;;;;;;;;;20.81;67.69;99574.09;7403033;19;1686;-59
2022/11/23 08:33:38;;;;;;;;;;;;;;;20.48;68.67;99577.91;7405263;19;1324;-59
2022/11/23 08:36:07;;;;;;;;;;;;;;;20.65;68.13;99537.41;7404994;19;1596;-59
2022/11/23 08:38:36;;;;;;;;;;;;;;;20.89;67.63;99565.13;7404556;19;951;-59
2022/11/23 08:41:05;;;;;;;;;;;;;;;20.91;67.24;99557.75;7405243;19;1869;-59
2022/11/23 08:43:36;;;;;;;;;;;;;;;20.34;68.92;99568.72;7403875;19;1497;-59
2022/11/23 08:46:04;;;;;;;;;;;;;;;19.94;70.05;99562.47;7405218;19;1751;-59
2022/11/23 08:48:33;;;;;;;;;;;;;;;19.63;71.11;99555.09;7404764;19;1537;-59
2022/11/23 08:51:01;;;;;;;;;;;;;;;19.48;71.49;99566.50;7405548;19;1593;-59
2022/11/23 08:53:29;;;;;;;;;;;;;;;19.35;71.74;99550.06;7406474;19;931;-59
2022/11/23 08:55:57;;;;;;;;;;;;;;;19.33;71.68;99554.75;7405107;19;1443;-56
2022/11/23 08:58:26;;;;;;;;;;;;;;;19.25;71.28;99549.41;7403946;19;1728;-56
2022/11/23 09:00:57;;;;;;;;;;;;;;;19.20;72.09;99546.38;7402273;19;1850;-56
2022/11/23 09:03:25;;;;;;;;;;;;;;;19.17;72.12;99541.34;7403329;19;1414;-56
2022/11/23 09:05:53;;;;;;;;;;;;;;;19.16;72.06;99555.75;7403662;19;1352;-56
2022/11/23 09:08:21;;;;;;;;;;;;;;;19.12;72.10;99533.84;7403227;19;1324;-57
2022/11/23 09:10:50;;;;;;;;;;;;;;;19.11;72.30;99532.13;7404885;19;1435;-56
2022/11/23 09:13:18;;;;;;;;;;;;;;;19.11;72.42;99528.63;7404678;19;1539;-56
2022/11/23 09:15:46;;;;;;;;;;;;;;;19.23;72.16;99535.31;7404381;19;1387;-56
2022/11/23 09:18:17;;;;;;;;;;;;;;;19.21;72.05;99527.44;7404570;19;1517;-56
2022/11/23 09:20:46;;;;;;;;;;;;;;;19.20;72.36;99524.94;7404693;19;1857;-56
2022/11/23 09:23:14;;;;;;;;;;;;;;;19.15;72.15;99528.13;7404505;19;1762;-56
2022/11/23 09:25:46;;;;;;;;;;;;;;;19.11;72.09;99525.94;7403843;19;1580;-56
2022/11/23 09:28:14;;;;;;;;;;;;;;;19.05;72.09;99509.53;7404188;19;1645;-56
2022/11/23 09:30:43;;;;;;;;;;;;;;;19.03;72.56;99508.84;7404274;19;1607;-56
2022/11/23 09:33:11;;;;;;;;;;;;;;;18.98;72.58;99508.53;7402856;19;1627;-56
2022/11/23 09:35:42;;;;;;;;;;;;;;;18.99;72.43;99512.03;7404827;19;1075;-56
2022/11/23 09:38:10;;;;;;;;;;;;;;;18.98;72.29;99508.53;7404583;19;1683;-56
2022/11/23 09:40:40;;;;;;;;;;;;;;;18.95;72.61;99513.38;7403114;19;1861;-56
2022/11/23 09:43:29;;;;;;;;;;;;;;;18.98;72.57;99519.25;7404619;19;1533;-56
2022/11/23 09:45:59;;;;;;;;;;;;;;;19.77;69.88;99511.50;7403976;19;1714;-56
2022/11/23 09:48:41;;;;;;;;;;;;;;;20.57;67.43;99529.34;7404025;19;1309;-56
2022/11/23 09:51:16;;;;;;;;;;;;;;;20.97;66.14;99511.34;7406980;19;1661;-56
2022/11/23 09:53:47;;;;;;;;;;;;;;;20.75;66.82;99498.69;7411640;19;1619;-56
2022/11/23 09:56:18;;;;;;;;;;;;;;;20.70;67.38;99503.78;7411816;19;997;-56
2022/11/23 09:58:47;;;;;;;;;;;;;;;20.83;66.64;99491.44;7410111;19;1104;-56
2022/11/23 10:01:16;;;;;;;;;;;;;;;20.85;66.95;99493.97;7408393;19;1881;-56
2022/11/23 10:03:45;;;;;;;;;;;;;;;20.21;68.51;99497.63;7409531;19;1540;-56
2022/11/23 10:06:20;;;;;;;;;;;;;;;19.87;69.54;99487.16;7410727;19;1547;-56
2022/11/23 10:09:02;;;;;;;;;;;;;;;19.63;70.57;99498.78;7410625;19;1312;-56
2022/11/23 10:11:41;;;;;;;;;;;;;;;19.44;70.68;99495.44;7411363;19;1512;-56
2022/11/23 10:14:16;;;;;;;;;;;;;;;19.33;71.17;99482.38;7411153;19;1510;-56
2022/11/23 10:16:50;;;;;;;;;;;;;;;19.29;71.20;99481.06;7410172;19;1596;-57
2022/11/23 10:19:24;;;;;;;;;;;;;;;19.26;71.41;99484.09;7410922;19;934;-56
2022/11/23 10:22:00;;;;;;;;;;;;;;;19.22;72.01;99488.13;7405779;19;1862;-56
2022/11/23 10:24:31;;;;;;;;;;;;;;;19.20;71.59;99487.41;7408931;19;1537;-56
2022/11/23 10:27:00;;;;;;;;;;;;;;;19.13;71.71;99487.25;7410291;19;1446;-56
2022/11/23 10:29:30;;;;;;;;;;;;;;;19.13;72.12;99487.25;7410065;19;1352;-55
2022/11/23 10:31:59;;;;;;;;;;;;;;;19.20;71.89;99503.50;7410316;19;985;-56
2022/11/23 10:34:38;;;;;;;;;;;;;;;19.21;72.09;99487.25;7409553;19;1447;-56
2022/11/23 10:37:13;;;;;;;;;;;;;;;19.19;71.89;99491.94;7407686;19;1900;-56
2022/11/23 10:39:41;;;;;;;;;;;;;;;19.15;71.63;99501.31;7408348;19;1809;-56
2022/11/23 10:42:16;;;;;;;;;;;;;;;19.13;71.44;99513.22;7405581;19;1852;-56
2022/11/23 10:44:45;;;;;;;;;;;;;;;19.08;71.93;99490.44;7409897;19;1383;-56
2022/11/23 10:47:34;;;;;;;;;;;;;;;19.06;71.84;99481.75;7409195;19;1551;-56
2022/11/23 10:50:02;;;;;;;;;;;;;;;19.02;71.78;99480.41;7410251;19;947;-56
2022/11/23 10:52:34;;;;;;;;;;;;;;;18.98;71.74;99489.78;7408228;19;1651;-56
2022/11/23 10:55:03;;;;;;;;;;;;;;;18.99;72.31;99475.34;7408695;19;1348;-56
2022/11/23 10:57:33;;;;;;;;;;;;;;;18.99;72.37;99474.53;7407956;19;1642;-56
2022/11/23 11:00:03;;;;;;;;;;;;;;;18.97;71.37;99472.00;7407882;19;1556;-56
2022/11/23 11:02:39;;;;;;;;;;;;;;;19.03;72.31;99473.19;7404784;19;1840;-56
2022/11/23 11:05:16;;;;;;;;;;;;;;;19.78;69.59;99489.06;7408262;19;1232;-56
2022/11/23 11:07:48;;;;;;;;;;;;;;;20.45;67.93;99491.31;7408258;19;1759;-56
2022/11/23 11:10:31;;;;;;;;;;;;;;;20.75;66.81;99464.63;7409019;19;1501;-56
2022/11/23 11:12:59;;;;;;;;;;;;;;;20.68;66.75;99449.41;7408397;19;1312;-56
2022/11/23 11:15:27;;;;;;;;;;;;;;;20.79;67.14;99457.03;7407995;19;1576;-56
2022/11/23 11:17:56;;;;;;;;;;;;;;;20.77;66.91;99459.06;7407152;19;1316;-56
2022/11/23 11:20:37;;;;;;;;;;;;;;;20.63;67.40;99468.72;7407498;19;1846;-56
2022/11/23 11:23:18;;;;;;;;;;;;;;;20.31;67.80;99458.97;7408234;19;1632;-56
2022/11/23 11:25:46;;;;;;;;;;;;;;;19.93;69.41;99472.22;7408263;19;1639;-56
2022/11/23 11:28:22;;;;;;;;;;;;;;;19.65;70.27;99472.63;7407926;19;1644;-56
2022/11/23 11:30:57;;;;;;;;;;;;;;;19.52;70.70;99475.84;7406295;19;1862;-56
2022/11/23 11:33:30;;;;;;;;;;;;;;;19.45;70.89;99480.19;7406955;19;1592;-56
2022/11/23 11:36:00;;;;;;;;;;;;;;;19.34;71.05;99489.44;7403598;19;1788;-56
2022/11/23 11:38:34;;;;;;;;;;;;;;;19.28;70.93;99484.75;7409026;19;1014;-56
2022/11/23 11:41:07;;;;;;;;;;;;;;;19.30;71.40;99490.78;7407892;19;1844;-56
2022/11/23 11:43:38;;;;;;;;;;;;;;;19.25;71.45;99479.72;7407565;19;1735;-56
2022/11/23 11:46:11;;;;;;;;;;;;;;;19.23;71.34;99489.78;7407050;19;1498;-56
2022/11/23 11:48:41;;;;;;;;;;;;;;;19.17;71.43;99487.75;7406985;19;1572;-56
2022/11/23 11:51:14;;;;;;;;;;;;;;;19.14;71.00;99480.91;7403920;19;1636;-56
2022/11/23 11:53:48;;;;;;;;;;;;;;;19.19;71.61;99486.59;7407397;19;1615;-56
2022/11/23 11:56:19;;;;;;;;;;;;;;;19.31;71.41;99462.97;7407777;19;1056;-56
2022/11/23 11:58:53;;;;;;;;;;;;;;;19.26;71.71;99474.19;7406866;19;1028;-56
2022/11/23 12:01:28;;;;;;;;;;;;;;;19.23;71.42;99471.00;7405762;19;1871;-56
2022/11/23 12:03:59;;;;;;;;;;;;;;;19.16;71.66;99478.03;7405522;19;1672;-56
2022/11/23 12:06:31;;;;;;;;;;;;;;;19.10;71.68;99465.31;7406782;19;1543;-56
2022/11/23 12:09:05;;;;;;;;;;;;;;;19.07;71.80;99467.31;7406031;19;1447;-56
2022/11/23 12:11:33;;;;;;;;;;;;;;;19.07;71.95;99478.03;7406777;19;1548;-56
2022/11/23 12:14:03;;;;;;;;;;;;;;;19.01;71.78;99478.72;7406409;19;1634;-56
2022/11/23 12:16:38;;;;;;;;;;;;;;;18.98;71.82;99494.28;7407489;19;985;-56
2022/11/23 12:19:12;;;;;;;;;;;;;;;18.96;72.11;99486.44;7406530;19;1059;-56
2022/11/23 12:21:51;;;;;;;;;;;;;;;18.95;71.56;99500.81;7403092;19;1854;-56
2022/11/23 12:24:25;;;;;;;;;;;;;;;19.12;71.36;99507.03;7406782;19;1611;-56
2022/11/23 12:26:58;;;;;;;;;;;;;;;20.01;68.51;99513.28;7406474;19;1532;-56
2022/11/23 12:29:39;;;;;;;;;;;;;;;20.97;65.84;99524.78;7406050;19;1343;-56
2022/11/23 12:32:14;;;;;;;;;;;;;;;20.80;66.39;99524.03;7406194;19;1071;-56
2022/11/23 12:35:02;;;;;;;;;;;;;;;20.80;66.47;99528.56;7405605;19;1455;-56
2022/11/23 12:37:38;;;;;;;;;;;;;;;20.81;66.67;99514.97;7404898;19;1647;-56
2022/11/23 12:40:19;;;;;;;;;;;;;;;20.78;66.84;99534.13;7404817;19;1364;-56
2022/11/23 12:42:48;;;;;;;;;;;;;;;20.44;67.60;99529.06;7403843;19;1854;-57
2022/11/23 12:45:32;;;;;;;;;;;;;;;20.05;68.74;99529.88;7404555;19;1359;-56
2022/11/23 12:48:06;;;;;;;;;;;;;;;19.73;70.07;99553.09;7404661;19;1589;-56
2022/11/23 12:50:39;;;;;;;;;;;;;;;19.56;70.41;99552.25;7405808;19;1153;-56
2022/11/23 12:53:17;;;;;;;;;;;;;;;19.41;70.53;99538.66;7404869;19;1585;-56
2022/11/23 12:55:51;;;;;;;;;;;;;;;19.32;70.55;99542.38;7405491;19;1686;-56
2022/11/23 12:58:23;;;;;;;;;;;;;;;19.28;70.55;99549.09;7403925;19;1498;-56
2022/11/23 13:00:55;;;;;;;;;;;;;;;19.19;71.04;99537.50;7403361;19;1426;-56
2022/11/23 13:03:41;;;;;;;;;;;;;;;19.18;70.82;99533.16;7404521;19;1533;-56
2022/11/23 13:06:23;;;;;;;;;;;;;;;19.13;71.04;99537.34;7403735;19;1752;-56
2022/11/23 13:09:00;;;;;;;;;;;;;;;19.07;70.58;99539.66;7405736;19;1497;-56
2022/11/23 13:11:37;;;;;;;;;;;;;;;19.09;70.85;99536.81;7405217;19;1438;-56
2022/11/23 13:14:12;;;;;;;;;;;;;;;19.09;71.44;99536.81;7403094;19;1544;-56